createdAt,value
2022-12-19T00:01:09.247Z,24.42
2022-12-19T00:01:56.428Z,27.30
2022-12-19T00:02:43.644Z,26.00
2022-12-19T00:03:32.369Z,27.27
2022-12-19T00:04:21.463Z,25.77
2022-12-19T00:05:08.453Z,26.95
2022-12-19T00:05:55.441Z,26.52
2022-12-19T00:06:43.782Z,25.80
2022-12-19T00:07:31.014Z,26.55
2022-12-19T00:08:18.210Z,25.00
2022-12-19T00:09:08.435Z,26.17
2022-12-19T00:09:55.455Z,26.10
2022-12-19T00:10:42.714Z,26.98
2022-12-19T00:11:30.118Z,26.40
2022-12-19T00:12:19.321Z,26.95
2022-12-19T00:13:06.354Z,27.90
2022-12-19T00:13:53.590Z,25.60
2022-12-19T00:14:40.642Z,26.10
2022-12-19T00:15:28.199Z,27.98
2022-12-19T00:16:20.166Z,27.08
2022-12-19T00:17:07.101Z,28.20
2022-12-19T00:17:54.385Z,27.85
2022-12-19T00:18:42.614Z,27.85
2022-12-19T00:19:29.753Z,27.10
2022-12-19T00:20:18.678Z,28.23
2022-12-19T00:21:06.297Z,27.50
2022-12-19T00:21:53.176Z,26.27
2022-12-19T00:22:40.155Z,26.87
2022-12-19T00:23:29.498Z,26.65
2022-12-19T00:24:20.724Z,25.75
2022-12-19T00:25:08.845Z,26.70
2022-12-19T00:25:56.605Z,26.77
2022-12-19T00:26:43.866Z,25.83
2022-12-19T00:27:34.857Z,27.15
2022-12-19T00:28:22.030Z,25.12
2022-12-19T00:29:14.121Z,27.25
2022-12-19T00:30:01.415Z,26.67
2022-12-19T00:30:48.384Z,26.10
2022-12-19T00:31:36.833Z,24.85
2022-12-19T00:32:23.775Z,26.37
2022-12-19T00:33:10.694Z,26.20
2022-12-19T00:33:58.068Z,25.92
2022-12-19T00:34:45.367Z,27.05
2022-12-19T00:35:32.267Z,25.77
2022-12-19T00:36:22.904Z,24.77
2022-12-19T00:37:12.077Z,25.77
2022-12-19T00:37:59.001Z,26.65
2022-12-19T00:38:46.587Z,24.45
2022-12-19T00:39:33.467Z,25.27
2022-12-19T00:40:20.425Z,25.75
2022-12-19T00:41:09.654Z,26.30
2022-12-19T00:41:56.523Z,25.65
2022-12-19T00:42:46.414Z,27.00
2022-12-19T00:43:35.725Z,26.73
2022-12-19T00:44:22.895Z,26.00
2022-12-19T00:45:18.754Z,26.50
2022-12-19T00:46:07.980Z,25.70
2022-12-19T00:46:54.946Z,26.35
2022-12-19T00:47:41.809Z,25.73
2022-12-19T00:48:29.291Z,25.92
2022-12-19T00:49:16.315Z,26.75
2022-12-19T00:50:04.505Z,26.83
2022-12-19T00:50:58.695Z,25.10
2022-12-19T00:51:45.745Z,26.12
2022-12-19T00:52:33.107Z,25.12
2022-12-19T00:53:21.093Z,25.52
2022-12-19T00:54:08.061Z,26.52
2022-12-19T00:54:55.458Z,26.37
2022-12-19T00:55:42.367Z,25.62
2022-12-19T00:56:33.505Z,26.08
2022-12-19T00:57:24.784Z,26.00
2022-12-19T00:58:11.644Z,24.87
2022-12-19T00:58:58.925Z,26.23
2022-12-19T00:59:45.897Z,24.00
2022-12-19T01:00:32.838Z,27.23
2022-12-19T01:01:24.658Z,25.80
2022-12-19T01:02:11.811Z,26.10
2022-12-19T01:02:59.012Z,26.50
2022-12-19T01:04:04.275Z,25.40
2022-12-19T01:04:53.255Z,23.55
2022-12-19T01:05:40.744Z,23.92
2022-12-19T01:06:29.659Z,25.05
2022-12-19T01:07:16.921Z,24.87
2022-12-19T01:08:03.886Z,25.77
2022-12-19T01:08:50.892Z,24.77
2022-12-19T01:09:37.978Z,26.27
2022-12-19T01:10:24.875Z,25.02
2022-12-19T01:11:12.016Z,24.00
2022-12-19T01:12:17.645Z,23.80
2022-12-19T01:13:04.494Z,25.17
2022-12-19T01:13:51.335Z,25.17
2022-12-19T01:14:38.276Z,26.15
2022-12-19T01:15:25.246Z,26.80
2022-12-19T01:16:13.767Z,26.37
2022-12-19T01:17:00.644Z,27.60
2022-12-19T01:17:48.826Z,25.73
2022-12-19T01:18:36.285Z,24.08
2022-12-19T01:19:23.175Z,24.48
2022-12-19T01:20:10.776Z,25.35
2022-12-19T01:21:00.077Z,26.10
2022-12-19T01:21:47.245Z,25.73
2022-12-19T01:22:35.344Z,25.65
2022-12-19T01:23:23.039Z,25.73
2022-12-19T01:24:09.996Z,25.08
2022-12-19T01:24:56.949Z,24.75
2022-12-19T01:25:45.879Z,24.67
2022-12-19T01:26:33.085Z,25.65
2022-12-19T01:27:19.976Z,24.02
2022-12-19T01:28:07.597Z,24.75
2022-12-19T01:28:54.534Z,25.35
2022-12-19T01:29:45.818Z,24.95
2022-12-19T01:30:40.698Z,24.25
2022-12-19T01:31:28.691Z,26.27
2022-12-19T01:32:15.604Z,26.27
2022-12-19T01:33:02.545Z,24.90
2022-12-19T01:33:49.475Z,24.87
2022-12-19T01:34:37.266Z,26.25
2022-12-19T01:35:24.556Z,24.98
2022-12-19T01:36:11.435Z,24.58
2022-12-19T01:36:58.296Z,26.75
2022-12-19T01:37:45.218Z,24.98
2022-12-19T01:38:32.126Z,24.10
2022-12-19T01:39:19.034Z,25.73
2022-12-19T01:40:06.583Z,24.63
2022-12-19T01:40:55.965Z,25.08
2022-12-19T01:41:42.980Z,25.05
2022-12-19T01:42:35.266Z,26.65
2022-12-19T01:43:23.436Z,24.08
2022-12-19T01:44:10.318Z,23.75
2022-12-19T01:45:10.325Z,24.10
2022-12-19T01:46:06.498Z,24.45
2022-12-19T01:46:57.754Z,24.55
2022-12-19T01:48:14.011Z,24.98
2022-12-19T01:49:01.707Z,22.00
2022-12-19T01:49:48.642Z,23.42
2022-12-19T01:51:01.480Z,23.70
2022-12-19T01:51:49.704Z,23.83
2022-12-19T01:52:36.594Z,23.60
2022-12-19T01:53:26.482Z,23.52
2022-12-19T01:54:21.236Z,23.60
2022-12-19T01:55:09.026Z,22.92
2022-12-19T01:55:56.278Z,22.85
2022-12-19T01:56:46.693Z,24.30
2022-12-19T01:57:34.777Z,24.20
2022-12-19T01:58:24.329Z,24.12
2022-12-19T01:59:15.004Z,23.08
2022-12-19T02:00:04.235Z,24.45
2022-12-19T02:00:51.273Z,24.25
2022-12-19T02:01:49.010Z,25.70
2022-12-19T02:02:45.754Z,24.35
2022-12-19T02:03:34.277Z,24.25
2022-12-19T02:04:21.783Z,23.38
2022-12-19T02:05:08.977Z,24.73
2022-12-19T02:05:56.564Z,24.27
2022-12-19T02:06:43.535Z,23.90
2022-12-19T02:07:31.932Z,23.65
2022-12-19T02:08:19.017Z,23.15
2022-12-19T02:09:05.901Z,24.15
2022-12-19T02:09:56.999Z,24.52
2022-12-19T02:10:44.364Z,22.92
2022-12-19T02:11:31.477Z,25.67
2022-12-19T02:12:18.392Z,24.02
2022-12-19T02:13:08.437Z,22.02
2022-12-19T02:13:55.356Z,24.02
2022-12-19T02:14:42.546Z,23.60
2022-12-19T02:15:33.559Z,24.92
2022-12-19T02:16:39.409Z,23.60
2022-12-19T02:17:39.988Z,21.65
2022-12-19T02:18:38.940Z,21.55
2022-12-19T02:19:54.120Z,21.83
2022-12-19T02:21:08.269Z,21.17
2022-12-19T02:22:32.366Z,22.70
2022-12-19T02:23:31.167Z,22.37
2022-12-19T02:24:29.383Z,21.27
2022-12-19T02:25:47.359Z,22.27
2022-12-19T02:26:46.922Z,22.60
2022-12-19T02:27:46.042Z,22.87
2022-12-19T02:29:10.362Z,21.70
2022-12-19T02:30:11.115Z,19.83
2022-12-19T02:32:26.225Z,19.58
2022-12-19T02:33:20.456Z,21.55
2022-12-19T02:34:14.222Z,21.25
2022-12-19T02:35:26.526Z,22.45
2022-12-19T02:36:18.297Z,23.05
2022-12-19T02:37:09.180Z,22.33
2022-12-19T02:38:02.574Z,22.42
2022-12-19T02:39:00.270Z,20.75
2022-12-19T02:40:05.349Z,21.75
2022-12-19T02:40:59.033Z,23.15
2022-12-19T02:41:55.364Z,21.00
2022-12-19T02:42:45.774Z,24.90
2022-12-19T02:43:37.037Z,21.80
2022-12-19T02:44:26.570Z,22.13
2022-12-19T02:45:16.801Z,22.80
2022-12-19T02:46:14.401Z,22.60
2022-12-19T02:47:03.042Z,23.12
2022-12-19T02:47:50.032Z,22.95
2022-12-19T02:48:37.052Z,22.30
2022-12-19T02:49:30.717Z,24.02
2022-12-19T02:50:18.356Z,22.08
2022-12-19T02:51:05.516Z,22.35
2022-12-19T02:51:52.453Z,21.77
2022-12-19T02:52:39.315Z,21.92
2022-12-19T02:53:26.335Z,21.95
2022-12-19T02:54:13.267Z,22.05
2022-12-19T02:55:04.028Z,21.17
2022-12-19T02:56:08.057Z,21.90
2022-12-19T02:57:17.487Z,21.73
2022-12-19T02:58:16.329Z,22.17
2022-12-19T02:59:17.817Z,21.08
2022-12-19T03:00:13.603Z,21.35
2022-12-19T03:01:17.088Z,20.50
2022-12-19T03:02:14.175Z,21.05
2022-12-19T03:03:21.984Z,21.25
2022-12-19T03:04:38.091Z,21.62
2022-12-19T03:05:40.380Z,22.10
2022-12-19T03:06:41.273Z,21.40
2022-12-19T03:07:49.433Z,21.15
2022-12-19T03:08:47.686Z,22.50
2022-12-19T03:10:00.224Z,22.45
2022-12-19T03:10:53.748Z,21.83
2022-12-19T03:11:42.633Z,20.85
2022-12-19T03:12:53.022Z,23.10
2022-12-19T03:13:48.222Z,22.05
2022-12-19T03:14:35.827Z,21.37
2022-12-19T03:15:23.384Z,23.23
2022-12-19T03:16:14.061Z,26.15
2022-12-19T03:17:06.103Z,25.12
2022-12-19T03:17:59.238Z,26.50
2022-12-19T03:18:46.297Z,24.85
2022-12-19T03:19:35.260Z,23.10
2022-12-19T03:20:44.566Z,26.48
2022-12-19T03:21:37.650Z,24.65
2022-12-19T03:22:24.638Z,26.98
2022-12-19T03:23:15.309Z,25.12
2022-12-19T03:24:02.766Z,25.50
2022-12-19T03:24:49.738Z,24.08
2022-12-19T03:25:36.661Z,28.73
2022-12-19T03:26:25.808Z,25.65
2022-12-19T03:27:21.196Z,25.25
2022-12-19T03:28:12.749Z,25.70
2022-12-19T03:29:16.563Z,25.23
2022-12-19T03:30:07.153Z,26.40
2022-12-19T03:31:41.771Z,22.58
2022-12-19T03:32:30.367Z,23.45
2022-12-19T03:33:19.330Z,24.92
2022-12-19T03:34:19.471Z,23.55
2022-12-19T03:35:08.965Z,19.80
2022-12-19T03:35:56.803Z,25.55
2022-12-19T03:36:47.346Z,24.67
2022-12-19T03:38:22.193Z,23.60
2022-12-19T03:39:10.719Z,25.27
2022-12-19T03:40:00.387Z,25.60
2022-12-19T03:40:48.421Z,24.48
2022-12-19T03:41:54.816Z,23.98
2022-12-19T03:43:05.344Z,26.73
2022-12-19T03:43:52.420Z,26.70
2022-12-19T03:44:41.564Z,26.00
2022-12-19T03:45:54.622Z,25.70
2022-12-19T03:46:50.923Z,26.52
2022-12-19T03:47:44.956Z,25.77
2022-12-19T03:48:45.620Z,25.58
2022-12-19T03:49:32.666Z,27.85
2022-12-19T03:50:19.766Z,26.17
2022-12-19T03:51:15.908Z,26.65
2022-12-19T03:52:05.406Z,25.80
2022-12-19T03:53:10.629Z,26.70
2022-12-19T03:54:07.951Z,25.70
2022-12-19T03:55:06.815Z,24.92
2022-12-19T03:56:37.073Z,25.30
2022-12-19T03:58:01.019Z,26.62
2022-12-19T03:58:52.197Z,24.70
2022-12-19T03:59:45.229Z,24.60
2022-12-19T04:00:34.782Z,27.48
2022-12-19T04:01:22.007Z,27.23
2022-12-19T04:02:10.465Z,28.08
2022-12-19T04:02:58.036Z,27.62
2022-12-19T04:03:45.344Z,28.62
2022-12-19T04:04:36.568Z,27.50
2022-12-19T04:05:27.603Z,27.05
2022-12-19T04:06:15.218Z,26.20
2022-12-19T04:07:03.825Z,25.80
2022-12-19T04:07:52.937Z,27.58
2022-12-19T04:08:40.253Z,26.20
2022-12-19T04:09:27.387Z,27.37
2022-12-19T04:10:17.389Z,25.17
2022-12-19T04:11:09.667Z,23.98
2022-12-19T04:12:10.339Z,25.62
2022-12-19T04:13:12.938Z,25.58
2022-12-19T04:14:03.467Z,24.35
2022-12-19T04:14:50.496Z,23.80
2022-12-19T04:15:49.207Z,24.92
2022-12-19T04:16:44.427Z,26.65
2022-12-19T04:17:49.808Z,26.60
2022-12-19T04:18:37.949Z,26.92
2022-12-19T04:19:48.849Z,25.62
2022-12-19T04:20:38.331Z,25.37
2022-12-19T04:21:32.881Z,23.58
2022-12-19T04:22:37.232Z,25.10
2022-12-19T04:23:29.363Z,25.62
2022-12-19T04:24:26.813Z,23.83
2022-12-19T04:25:16.803Z,26.50
2022-12-19T04:26:05.356Z,24.48
2022-12-19T04:26:54.431Z,24.98
2022-12-19T04:27:44.941Z,24.25
2022-12-19T04:28:45.975Z,24.17
2022-12-19T04:29:34.980Z,25.60
2022-12-19T04:30:22.018Z,24.15
2022-12-19T04:31:12.164Z,25.42
2022-12-19T04:31:59.409Z,25.08
2022-12-19T04:32:47.101Z,25.77
2022-12-19T04:33:34.088Z,27.73
2022-12-19T04:34:21.734Z,25.12
2022-12-19T04:35:09.632Z,26.00
2022-12-19T04:35:56.479Z,25.70
2022-12-19T04:36:43.398Z,25.37
2022-12-19T04:37:31.446Z,24.50
2022-12-19T04:38:18.360Z,25.65
2022-12-19T04:39:05.386Z,27.37
2022-12-19T04:39:52.269Z,26.67
2022-12-19T04:40:41.523Z,24.52
2022-12-19T04:41:28.800Z,20.08
2022-12-19T04:42:15.669Z,25.12
2022-12-19T04:43:02.638Z,26.50
2022-12-19T04:43:49.543Z,26.15
2022-12-19T04:44:36.448Z,25.25
2022-12-19T04:45:23.404Z,26.62
2022-12-19T04:46:10.689Z,24.92
2022-12-19T04:46:57.627Z,26.17
2022-12-19T04:47:44.559Z,25.50
2022-12-19T04:48:31.511Z,27.30
2022-12-19T04:49:18.570Z,25.95
2022-12-19T04:50:06.255Z,25.80
2022-12-19T04:50:53.260Z,26.58
2022-12-19T04:51:40.148Z,25.67
2022-12-19T04:52:27.059Z,25.75
2022-12-19T04:53:14.028Z,26.23
2022-12-19T04:54:00.985Z,25.70
2022-12-19T04:54:47.946Z,26.02
2022-12-19T04:55:34.949Z,26.23
2022-12-19T04:56:21.853Z,25.80
2022-12-19T04:57:08.887Z,27.60
2022-12-19T04:57:55.856Z,27.00
2022-12-19T04:58:42.849Z,24.67
2022-12-19T04:59:32.188Z,25.65
2022-12-19T05:00:19.199Z,26.08
2022-12-19T05:01:07.698Z,25.80
2022-12-19T05:01:54.823Z,26.58
2022-12-19T05:02:42.125Z,26.60
2022-12-19T05:03:29.289Z,27.45
2022-12-19T05:04:16.245Z,27.15
2022-12-19T05:05:03.318Z,26.77
2022-12-19T05:05:50.216Z,26.30
2022-12-19T05:06:37.379Z,25.62
2022-12-19T05:07:24.318Z,26.37
2022-12-19T05:08:11.206Z,27.10
2022-12-19T05:08:58.246Z,25.65
2022-12-19T05:09:45.120Z,27.00
2022-12-19T05:10:32.082Z,27.40
2022-12-19T05:11:20.089Z,26.90
2022-12-19T05:12:07.300Z,28.15
2022-12-19T05:12:55.146Z,26.62
2022-12-19T05:13:42.236Z,27.45
2022-12-19T05:14:29.160Z,26.67
2022-12-19T05:15:16.404Z,25.55
2022-12-19T05:16:05.871Z,24.92
2022-12-19T05:16:57.226Z,24.92
2022-12-19T05:17:47.447Z,25.65
2022-12-19T05:18:34.738Z,25.90
2022-12-19T05:19:24.487Z,25.62
2022-12-19T05:20:11.899Z,26.55
2022-12-19T05:20:59.136Z,26.50
2022-12-19T05:21:46.016Z,27.05
2022-12-19T05:22:33.135Z,27.13
2022-12-19T05:23:20.528Z,24.98
2022-12-19T05:24:07.747Z,26.60
2022-12-19T05:24:54.686Z,28.23
2022-12-19T05:25:41.545Z,28.45
2022-12-19T05:26:28.430Z,27.48
2022-12-19T05:27:15.428Z,28.08
2022-12-19T05:28:02.306Z,26.55
2022-12-19T05:28:49.206Z,27.58
2022-12-19T05:29:36.076Z,25.30
2022-12-19T05:30:24.726Z,26.10
2022-12-19T05:31:14.418Z,27.00
2022-12-19T05:32:02.096Z,23.12
2022-12-19T05:32:48.975Z,26.52
2022-12-19T05:33:36.422Z,27.35
2022-12-19T05:34:24.639Z,26.20
2022-12-19T05:35:11.636Z,26.90
2022-12-19T05:35:58.676Z,26.00
2022-12-19T05:36:46.895Z,25.52
2022-12-19T05:37:33.776Z,26.98
2022-12-19T05:38:20.689Z,26.50
2022-12-19T05:39:07.546Z,26.17
2022-12-19T05:39:54.466Z,25.33
2022-12-19T05:40:42.767Z,27.25
2022-12-19T05:41:29.724Z,27.87
2022-12-19T05:42:16.543Z,24.95
2022-12-19T05:43:03.489Z,26.50
2022-12-19T05:43:52.818Z,28.00
2022-12-19T05:44:40.004Z,27.45
2022-12-19T05:45:26.906Z,27.23
2022-12-19T05:46:13.917Z,25.70
2022-12-19T05:47:00.905Z,25.83
2022-12-19T05:47:48.174Z,27.35
2022-12-19T05:48:35.562Z,24.95
2022-12-19T05:49:22.418Z,25.83
2022-12-19T05:50:09.965Z,26.90
2022-12-19T05:50:56.914Z,25.42
2022-12-19T05:51:46.986Z,25.33
2022-12-19T05:52:33.875Z,24.67
2022-12-19T05:53:25.755Z,27.95
2022-12-19T05:54:13.105Z,25.60
2022-12-19T05:55:00.263Z,26.02
2022-12-19T05:55:47.126Z,26.87
2022-12-19T05:56:34.031Z,26.27
2022-12-19T05:57:20.911Z,27.87
2022-12-19T05:58:07.782Z,26.05
2022-12-19T05:58:54.906Z,27.70
2022-12-19T05:59:41.902Z,25.75
2022-12-19T06:00:28.805Z,26.05
2022-12-19T06:01:18.553Z,26.80
2022-12-19T06:02:05.639Z,28.62
2022-12-19T06:02:52.659Z,23.92
2022-12-19T06:03:39.950Z,25.33
2022-12-19T06:04:26.853Z,25.67
2022-12-19T06:05:14.086Z,25.62
2022-12-19T06:06:09.672Z,26.05
2022-12-19T06:06:56.591Z,24.90
2022-12-19T06:07:43.496Z,24.23
2022-12-19T06:08:30.462Z,25.02
2022-12-19T06:09:17.360Z,24.95
2022-12-19T06:10:04.847Z,24.50
2022-12-19T06:10:51.813Z,23.45
2022-12-19T06:11:38.719Z,25.40
2022-12-19T06:12:25.660Z,23.42
2022-12-19T06:13:12.520Z,25.40
2022-12-19T06:13:59.469Z,25.77
2022-12-19T06:14:46.362Z,25.33
2022-12-19T06:15:33.285Z,26.83
2022-12-19T06:16:21.644Z,24.63
2022-12-19T06:17:08.604Z,25.45
2022-12-19T06:17:55.562Z,23.70
2022-12-19T06:18:45.035Z,24.83
2022-12-19T06:19:32.281Z,24.75
2022-12-19T06:20:19.181Z,24.92
2022-12-19T06:21:08.043Z,24.73
2022-12-19T06:21:54.982Z,23.95
2022-12-19T06:22:44.631Z,24.15
2022-12-19T06:23:33.243Z,24.37
2022-12-19T06:24:20.132Z,24.33
2022-12-19T06:25:07.964Z,25.27
2022-12-19T06:25:57.623Z,25.23
2022-12-19T06:26:45.020Z,25.98
2022-12-19T06:27:31.908Z,27.00
2022-12-19T06:28:18.861Z,25.70
2022-12-19T06:29:05.763Z,26.02
2022-12-19T06:29:52.724Z,25.95
2022-12-19T06:30:39.610Z,24.60
2022-12-19T06:31:26.615Z,25.02
2022-12-19T06:32:13.554Z,26.48
2022-12-19T06:33:01.198Z,25.23
2022-12-19T06:33:48.093Z,24.98
2022-12-19T06:35:04.661Z,25.50
2022-12-19T06:35:42.298Z,25.92
2022-12-19T06:36:30.781Z,25.80
2022-12-19T06:37:17.783Z,26.05
2022-12-19T06:38:04.687Z,25.55
2022-12-19T06:38:51.998Z,25.65
2022-12-19T06:39:38.948Z,25.35
2022-12-19T06:40:44.730Z,25.80
2022-12-19T06:41:50.573Z,27.15
2022-12-19T06:42:37.512Z,25.35
2022-12-19T06:43:26.005Z,27.00
2022-12-19T06:44:14.667Z,24.05
2022-12-19T06:45:01.630Z,25.62
2022-12-19T06:45:48.529Z,24.85
2022-12-19T06:46:35.434Z,26.92
2022-12-19T06:47:23.324Z,25.02
2022-12-19T06:48:10.252Z,24.75
2022-12-19T06:49:00.015Z,25.25
2022-12-19T06:49:47.034Z,25.88
2022-12-19T06:50:36.111Z,22.48
2022-12-19T06:51:23.462Z,25.23
2022-12-19T06:52:10.321Z,26.05
2022-12-19T06:52:57.190Z,25.95
2022-12-19T06:53:44.187Z,24.77
2022-12-19T06:54:31.674Z,25.92
2022-12-19T06:55:18.910Z,23.62
2022-12-19T06:56:06.120Z,26.42
2022-12-19T06:56:53.021Z,25.67
2022-12-19T06:57:46.186Z,28.23
2022-12-19T06:58:33.787Z,25.27
2022-12-19T06:59:20.818Z,26.42
2022-12-19T07:00:08.498Z,26.70
2022-12-19T07:00:55.502Z,25.98
2022-12-19T07:01:48.589Z,26.30
2022-12-19T07:02:35.586Z,24.92
2022-12-19T07:03:26.048Z,25.73
2022-12-19T07:04:16.100Z,26.02
2022-12-19T07:05:04.731Z,25.17
2022-12-19T07:05:51.700Z,25.90
2022-12-19T07:06:38.978Z,25.88
2022-12-19T07:07:25.883Z,26.02
2022-12-19T07:08:12.793Z,25.75
2022-12-19T07:09:00.321Z,25.00
2022-12-19T07:09:47.229Z,26.15
2022-12-19T07:10:34.233Z,26.27
2022-12-19T07:11:21.118Z,24.63
2022-12-19T07:12:10.177Z,25.52
2022-12-19T07:12:57.078Z,25.67
2022-12-19T07:13:43.988Z,24.75
2022-12-19T07:14:31.007Z,26.87
2022-12-19T07:15:17.876Z,26.73
2022-12-19T07:16:05.842Z,25.95
2022-12-19T07:16:53.733Z,26.92
2022-12-19T07:17:40.843Z,25.80
2022-12-19T07:18:29.540Z,25.73
2022-12-19T07:19:16.736Z,23.85
2022-12-19T07:20:03.968Z,25.05
2022-12-19T07:20:50.998Z,25.20
2022-12-19T07:21:38.383Z,25.27
2022-12-19T07:22:27.749Z,24.90
2022-12-19T07:23:19.701Z,24.80
2022-12-19T07:24:07.494Z,24.70
2022-12-19T07:24:56.325Z,24.30
2022-12-19T07:25:43.279Z,25.12
2022-12-19T07:26:30.296Z,23.70
2022-12-19T07:27:17.191Z,23.25
2022-12-19T07:28:51.417Z,23.45
2022-12-19T07:29:38.291Z,23.45
2022-12-19T07:30:25.189Z,24.40
2022-12-19T07:31:12.852Z,24.73
2022-12-19T07:31:59.961Z,24.33
2022-12-19T07:32:46.851Z,24.15
2022-12-19T07:33:34.045Z,23.30
2022-12-19T07:34:20.976Z,23.75
2022-12-19T07:35:08.371Z,24.00
2022-12-19T07:35:55.291Z,24.00
2022-12-19T07:36:42.207Z,24.42
2022-12-19T07:37:29.128Z,23.48
2022-12-19T07:38:16.415Z,24.52
2022-12-19T07:39:03.400Z,24.33
2022-12-19T07:39:50.571Z,24.42
2022-12-19T07:40:37.503Z,22.90
2022-12-19T07:41:24.446Z,24.17
2022-12-19T07:42:12.355Z,24.52
2022-12-19T07:43:03.574Z,24.02
2022-12-19T07:43:50.476Z,22.80
2022-12-19T07:44:37.394Z,23.65
2022-12-19T07:45:24.297Z,24.52
2022-12-19T07:46:11.466Z,23.62
2022-12-19T07:46:58.413Z,23.42
2022-12-19T07:47:45.386Z,23.75
2022-12-19T07:48:32.290Z,23.70
2022-12-19T07:49:22.622Z,24.17
2022-12-19T07:50:56.789Z,21.17
2022-12-19T07:51:43.708Z,24.30
2022-12-19T07:52:30.657Z,23.42
2022-12-19T07:53:17.592Z,23.38
2022-12-19T07:54:08.257Z,24.75
2022-12-19T07:55:42.240Z,22.55
2022-12-19T07:56:29.138Z,22.50
2022-12-19T07:57:16.185Z,22.73
2022-12-19T07:58:03.257Z,24.05
2022-12-19T07:58:50.248Z,23.85
2022-12-19T07:59:39.414Z,24.05
2022-12-19T08:00:26.444Z,23.98
2022-12-19T08:01:13.489Z,25.90
2022-12-19T08:02:00.621Z,23.27
2022-12-19T08:02:48.159Z,22.85
2022-12-19T08:03:36.177Z,22.83
2022-12-19T08:04:23.226Z,24.12
2022-12-19T08:05:10.440Z,23.25
2022-12-19T08:06:05.480Z,22.45
2022-12-19T08:06:52.361Z,23.75
2022-12-19T08:07:39.291Z,22.58
2022-12-19T08:08:26.418Z,22.98
2022-12-19T08:09:13.719Z,22.23
2022-12-19T08:10:00.790Z,23.42
2022-12-19T08:10:47.756Z,23.55
2022-12-19T08:11:34.741Z,22.90
2022-12-19T08:12:21.744Z,22.95
2022-12-19T08:13:09.246Z,22.85
2022-12-19T08:13:57.366Z,23.60
2022-12-19T08:14:44.870Z,22.60
2022-12-19T08:15:31.855Z,21.95
2022-12-19T08:16:18.833Z,23.27
2022-12-19T08:17:21.778Z,22.58
2022-12-19T08:18:08.904Z,20.40
2022-12-19T08:18:55.974Z,21.12
2022-12-19T08:19:43.060Z,23.48
2022-12-19T08:20:30.395Z,20.98
2022-12-19T08:21:17.382Z,21.85
2022-12-19T08:22:04.305Z,22.13
2022-12-19T08:22:51.724Z,22.48
2022-12-19T08:23:41.606Z,21.30
2022-12-19T08:24:31.118Z,22.10
2022-12-19T08:25:17.992Z,21.52
2022-12-19T08:26:07.603Z,21.62
2022-12-19T08:26:54.556Z,20.02
2022-12-19T08:27:43.026Z,20.48
2022-12-19T08:28:30.946Z,19.90
2022-12-19T08:29:17.864Z,20.25
2022-12-19T08:30:05.265Z,20.23
2022-12-19T08:30:52.334Z,20.40
2022-12-19T08:31:39.286Z,19.35
2022-12-19T08:32:26.227Z,21.08
2022-12-19T08:33:13.200Z,19.48
2022-12-19T08:34:00.205Z,19.62
2022-12-19T08:34:47.149Z,20.10
2022-12-19T08:35:34.205Z,19.62
2022-12-19T08:36:21.305Z,20.95
2022-12-19T08:37:08.976Z,20.15
2022-12-19T08:37:55.878Z,20.20
2022-12-19T08:38:42.829Z,21.25
2022-12-19T08:39:29.736Z,19.65
2022-12-19T08:40:16.685Z,19.85
2022-12-19T08:41:04.448Z,19.62
2022-12-19T08:41:51.425Z,20.12
2022-12-19T08:42:38.297Z,19.62
2022-12-19T08:43:25.531Z,19.62
2022-12-19T08:44:13.521Z,21.37
2022-12-19T08:45:00.430Z,20.12
2022-12-19T08:45:50.640Z,20.45
2022-12-19T08:46:37.646Z,18.37
2022-12-19T08:47:24.671Z,20.02
2022-12-19T08:48:11.758Z,19.02
2022-12-19T08:48:58.641Z,20.20
2022-12-19T08:49:46.901Z,21.37
2022-12-19T08:50:33.779Z,19.77
2022-12-19T08:51:22.145Z,20.50
2022-12-19T08:52:09.020Z,19.62
2022-12-19T08:52:56.055Z,19.35
2022-12-19T08:53:44.316Z,21.90
2022-12-19T08:54:31.212Z,20.08
2022-12-19T08:55:18.259Z,19.52
2022-12-19T08:56:17.077Z,20.83
2022-12-19T08:57:04.139Z,20.27
2022-12-19T08:57:51.016Z,20.60
2022-12-19T08:58:38.007Z,19.05
2022-12-19T08:59:31.622Z,19.87
2022-12-19T09:00:19.235Z,19.67
2022-12-19T09:01:13.646Z,20.15
2022-12-19T09:02:01.305Z,19.30
2022-12-19T09:02:48.611Z,21.73
2022-12-19T09:03:45.851Z,20.08
2022-12-19T09:06:00.334Z,20.25
2022-12-19T09:06:07.023Z,19.35
2022-12-19T09:06:57.360Z,19.95
2022-12-19T09:07:44.307Z,20.40
2022-12-19T09:08:32.360Z,20.92
2022-12-19T09:09:19.257Z,19.27
2022-12-19T09:10:06.587Z,20.00
2022-12-19T09:11:05.935Z,20.08
2022-12-19T09:11:52.881Z,20.35
2022-12-19T09:12:39.902Z,20.25
2022-12-19T09:13:30.510Z,20.88
2022-12-19T09:15:08.923Z,20.17
2022-12-19T09:16:07.189Z,20.30
2022-12-19T09:16:54.137Z,19.98
2022-12-19T09:17:41.077Z,20.60
2022-12-19T09:18:28.916Z,19.98
2022-12-19T09:19:16.680Z,20.98
2022-12-19T09:20:03.778Z,21.00
2022-12-19T09:20:54.281Z,21.62
2022-12-19T09:21:41.390Z,21.12
2022-12-19T09:22:29.556Z,19.48
2022-12-19T09:23:16.621Z,20.52
2022-12-19T09:24:07.925Z,20.85
2022-12-19T09:24:55.447Z,20.17
2022-12-19T09:25:42.326Z,20.35
2022-12-19T09:26:29.198Z,20.45
2022-12-19T09:27:20.753Z,19.70
2022-12-19T09:29:20.749Z,19.35
2022-12-19T09:30:09.246Z,20.58
2022-12-19T09:31:08.426Z,21.23
2022-12-19T09:31:57.053Z,20.52
2022-12-19T09:32:44.218Z,19.67
2022-12-19T09:33:35.490Z,19.83
2022-12-19T09:34:36.956Z,20.88
2022-12-19T09:35:30.035Z,20.62
2022-12-19T09:36:24.516Z,21.52
2022-12-19T09:37:16.847Z,19.55
2022-12-19T09:38:06.752Z,20.90
2022-12-19T09:38:55.038Z,20.00
2022-12-19T09:39:42.070Z,22.10
2022-12-19T09:40:31.784Z,19.52
2022-12-19T09:41:52.630Z,22.23
2022-12-19T09:42:46.673Z,19.90
2022-12-19T09:43:41.253Z,19.12
2022-12-19T09:44:40.776Z,21.55
2022-12-19T09:45:36.643Z,19.75
2022-12-19T09:47:09.690Z,19.90
2022-12-19T09:47:59.036Z,20.85
2022-12-19T09:48:50.922Z,21.05
2022-12-19T09:49:44.208Z,20.02
2022-12-19T09:50:31.031Z,19.95
2022-12-19T09:51:36.020Z,20.27
2022-12-19T09:52:32.856Z,20.67
2022-12-19T09:53:33.756Z,20.25
2022-12-19T09:54:28.358Z,20.62
2022-12-19T09:55:41.723Z,19.52
2022-12-19T09:56:33.093Z,20.58
2022-12-19T09:58:08.760Z,19.85
2022-12-19T09:59:01.175Z,19.35
2022-12-19T10:00:21.504Z,21.75
2022-12-19T10:01:21.561Z,20.77
2022-12-19T10:02:36.835Z,20.65
2022-12-19T10:03:40.346Z,21.08
2022-12-19T10:04:28.644Z,20.08
2022-12-19T10:07:11.875Z,20.42
2022-12-19T10:07:11.921Z,19.35
2022-12-19T10:08:10.379Z,19.42
2022-12-19T10:09:46.329Z,21.70
2022-12-19T10:12:34.812Z,20.75
2022-12-19T10:12:42.573Z,21.52
2022-12-19T10:13:13.275Z,20.20
2022-12-19T10:14:28.070Z,19.80
2022-12-19T10:15:32.263Z,18.45
2022-12-19T10:16:25.075Z,20.45
2022-12-19T10:17:25.353Z,21.23
2022-12-19T10:18:31.037Z,19.02
2022-12-19T10:19:27.549Z,19.85
2022-12-19T10:20:41.009Z,22.52
2022-12-19T10:22:07.399Z,20.90
2022-12-19T10:22:50.300Z,20.98
2022-12-19T10:23:48.669Z,21.20
2022-12-19T10:25:09.393Z,21.55
2022-12-19T10:26:19.546Z,19.65
2022-12-19T10:27:59.456Z,21.73
2022-12-19T10:28:54.719Z,21.33
2022-12-19T10:30:10.156Z,20.65
2022-12-19T10:31:22.048Z,20.67
2022-12-19T10:32:51.452Z,20.25
2022-12-19T10:33:52.445Z,20.23
2022-12-19T10:34:44.422Z,20.15
2022-12-19T10:35:35.050Z,20.37
2022-12-19T10:36:42.011Z,21.87
2022-12-19T10:37:47.320Z,21.02
2022-12-19T10:38:51.242Z,21.80
2022-12-19T10:39:53.812Z,22.00
2022-12-19T10:40:53.971Z,21.00
2022-12-19T10:41:44.219Z,21.48
2022-12-19T10:42:51.824Z,20.25
2022-12-19T10:44:02.870Z,18.80
2022-12-19T10:45:47.424Z,19.92
2022-12-19T10:46:40.532Z,20.23
2022-12-19T10:47:29.897Z,21.83
2022-12-19T10:48:21.988Z,21.33
2022-12-19T10:49:22.247Z,21.25
2022-12-19T10:50:22.439Z,21.87
2022-12-19T10:51:23.337Z,21.42
2022-12-19T10:52:11.780Z,21.20
2022-12-19T10:53:04.716Z,20.77
2022-12-19T10:53:57.409Z,22.13
2022-12-19T10:54:44.390Z,21.92
2022-12-19T10:55:40.619Z,21.30
2022-12-19T10:56:36.797Z,20.90
2022-12-19T10:57:29.334Z,21.33
2022-12-19T10:58:21.888Z,20.67
2022-12-19T10:59:17.127Z,21.55
2022-12-19T11:00:20.379Z,20.67
2022-12-19T11:01:23.293Z,19.62
2022-12-19T11:02:41.965Z,19.52
2022-12-19T11:03:34.905Z,21.37
2022-12-19T11:04:30.269Z,19.30
2022-12-19T11:05:20.437Z,21.60
2022-12-19T11:06:40.728Z,19.98
2022-12-19T11:07:27.656Z,20.88
2022-12-19T11:08:19.040Z,20.70
2022-12-19T11:09:25.595Z,19.40